createdAt,value
2022-11-24T00:00:52.096Z,91180.50
2022-11-24T00:03:19.186Z,91188.13
2022-11-24T00:05:45.830Z,91203.53
2022-11-24T00:08:12.580Z,91203.53
2022-11-24T00:10:39.234Z,91214.69
2022-11-24T00:13:05.682Z,91229.28
2022-11-24T00:15:32.144Z,91236.97
2022-11-24T00:17:58.586Z,91259.88
2022-11-24T00:20:25.016Z,91271.78
2022-11-24T00:22:51.455Z,91281.53
2022-11-24T00:25:17.909Z,91275.94
2022-11-24T00:27:44.529Z,91268.91
2022-11-24T00:30:11.532Z,91268.19
2022-11-24T00:32:37.962Z,91271.56
2022-11-24T00:35:04.825Z,91272.31
2022-11-24T00:37:31.308Z,91282.75
2022-11-24T00:39:57.774Z,91283.38
2022-11-24T00:42:24.293Z,91279.88
2022-11-24T00:44:50.764Z,91281.84
2022-11-24T00:47:17.296Z,91282.56
2022-11-24T00:49:43.829Z,91286.78
2022-11-24T00:52:10.273Z,91285.25
2022-11-24T00:54:36.784Z,91285.25
2022-11-24T00:57:03.285Z,91299.19
2022-11-24T00:59:29.783Z,91296.41
2022-11-24T01:01:56.300Z,91301.88
2022-11-24T01:04:22.779Z,91305.41
2022-11-24T01:06:49.212Z,91304.69
2022-11-24T01:09:15.660Z,91303.22
2022-11-24T01:12:00.508Z,91303.94
2022-11-24T01:14:27.262Z,91298.38
2022-11-24T01:16:54.308Z,91301.03
2022-11-24T01:19:21.461Z,91301.03
2022-11-24T01:21:48.256Z,91305.94
2022-11-24T01:24:15.396Z,91314.19
2022-11-24T01:26:41.959Z,91314.91
2022-11-24T01:29:10.617Z,91320.47
2022-11-24T01:31:37.245Z,91329.47
2022-11-24T01:34:04.068Z,91332.16
2022-11-24T01:36:30.535Z,91336.41
2022-11-24T01:38:57.016Z,91325.97
2022-11-24T01:41:25.701Z,91327.94
2022-11-24T01:43:54.524Z,91330.72
2022-11-24T01:46:39.082Z,91324.41
2022-11-24T01:49:08.447Z,91334.13
2022-11-24T01:51:39.757Z,91339.00
2022-11-24T01:54:11.624Z,91327.09
2022-11-24T01:56:42.104Z,91334.66
2022-11-24T01:59:12.460Z,91345.81
2022-11-24T02:01:39.082Z,91355.50
2022-11-24T02:04:11.976Z,91366.66
2022-11-24T02:06:42.422Z,91364.50
2022-11-24T02:09:21.384Z,91370.81
2022-11-24T02:11:47.856Z,91365.25
2022-11-24T02:14:18.006Z,91365.25
2022-11-24T02:16:49.264Z,91374.22
2022-11-24T02:19:28.822Z,91363.81
2022-11-24T02:21:55.210Z,91365.13
2022-11-24T02:24:29.588Z,91377.66
2022-11-24T02:26:56.109Z,91381.75
2022-11-24T02:29:22.919Z,91387.34
2022-11-24T02:31:57.923Z,91377.53
2022-11-24T02:34:24.391Z,91380.31
2022-11-24T02:36:50.835Z,91376.19
2022-11-24T02:39:17.453Z,91380.31
2022-11-24T02:41:49.786Z,91395.59
2022-11-24T02:44:19.830Z,91394.16
2022-11-24T02:46:46.255Z,91385.69
2022-11-24T02:49:12.746Z,91387.13
2022-11-24T02:51:39.209Z,91393.94
2022-11-24T02:54:05.691Z,91395.41
2022-11-24T02:56:32.172Z,91405.09
2022-11-24T02:58:58.621Z,91405.22
2022-11-24T03:01:25.202Z,91408.00
2022-11-24T03:03:51.696Z,91412.84
2022-11-24T03:06:18.147Z,91413.59
2022-11-24T03:08:44.839Z,91417.72
2022-11-24T03:11:11.285Z,91422.47
2022-11-24T03:13:37.730Z,91431.56
2022-11-24T03:16:08.365Z,91435.69
2022-11-24T03:18:34.856Z,91441.25
2022-11-24T03:21:01.333Z,91444.03
2022-11-24T03:23:27.857Z,91450.25
2022-11-24T03:25:54.994Z,91447.47
2022-11-24T03:28:21.442Z,91458.00
2022-11-24T03:30:51.117Z,91462.03
2022-11-24T03:33:17.604Z,91466.25
2022-11-24T03:35:44.063Z,91458.63
2022-11-24T03:38:10.503Z,91458.00
2022-11-24T03:40:36.943Z,91458.63
2022-11-24T03:43:03.383Z,91445.41
2022-11-24T03:45:45.354Z,91453.78
2022-11-24T03:48:13.326Z,91448.19
2022-11-24T03:50:39.800Z,91441.16
2022-11-24T03:53:06.273Z,91455.09
2022-11-24T03:55:32.783Z,91455.09
2022-11-24T03:57:59.254Z,91455.81
2022-11-24T04:00:26.046Z,91455.09
2022-11-24T04:02:52.538Z,91455.09
2022-11-24T04:05:20.300Z,91459.22
2022-11-24T04:07:46.791Z,91463.38
2022-11-24T04:10:13.717Z,91470.41
2022-11-24T04:12:46.065Z,91463.38
2022-11-24T04:15:18.007Z,91467.50
2022-11-24T04:17:45.340Z,91466.06
2022-11-24T04:20:12.463Z,91470.41
2022-11-24T04:22:39.868Z,91473.06
2022-11-24T04:25:06.595Z,91480.72
2022-11-24T04:27:34.211Z,91492.59
2022-11-24T04:30:00.754Z,91490.53
2022-11-24T04:32:27.344Z,91478.66
2022-11-24T04:34:54.031Z,91481.44
2022-11-24T04:37:20.471Z,91495.38
2022-11-24T04:39:46.985Z,91499.53
2022-11-24T04:42:13.866Z,91500.22
2022-11-24T04:44:40.331Z,91515.53
2022-11-24T04:47:06.872Z,91523.28
2022-11-24T04:49:33.411Z,91517.81
2022-11-24T04:51:59.983Z,91515.03
2022-11-24T04:54:26.435Z,91522.06
2022-11-24T04:56:53.327Z,91513.59
2022-11-24T04:59:20.082Z,91527.63
2022-11-24T05:01:47.254Z,91530.34
2022-11-24T05:04:15.445Z,91534.56
2022-11-24T05:06:42.160Z,91534.44
2022-11-24T05:09:13.490Z,91544.38
2022-11-24T05:11:39.922Z,91549.97
2022-11-24T05:14:06.388Z,91544.38
2022-11-24T05:16:33.922Z,91540.88
2022-11-24T05:19:00.361Z,91531.88
2022-11-24T05:21:28.083Z,91529.09
2022-11-24T05:23:54.537Z,91540.25
2022-11-24T05:26:21.482Z,91549.97
2022-11-24T05:28:47.940Z,91538.09
2022-11-24T05:31:14.545Z,91541.69
2022-11-24T05:33:42.859Z,91541.69
2022-11-24T05:36:29.576Z,91545.84
2022-11-24T05:38:56.045Z,91547.28
2022-11-24T05:41:22.512Z,91540.38
2022-11-24T05:43:48.962Z,91543.16
2022-11-24T05:46:15.461Z,91547.28
2022-11-24T05:48:41.955Z,91552.88
2022-11-24T05:51:09.521Z,91557.75
2022-11-24T05:53:36.199Z,91568.16
2022-11-24T05:56:03.993Z,91574.47
2022-11-24T05:58:30.487Z,91573.75
2022-11-24T06:00:56.935Z,91572.41
2022-11-24T06:03:23.810Z,91572.41
2022-11-24T06:05:50.260Z,91575.19
2022-11-24T06:08:16.756Z,91580.75
2022-11-24T06:10:43.234Z,91586.34
2022-11-24T06:13:09.750Z,91584.91
2022-11-24T06:15:37.743Z,91582.00
2022-11-24T06:18:04.581Z,91584.91
2022-11-24T06:20:32.893Z,91585.63
2022-11-24T06:23:00.392Z,91584.91
2022-11-24T06:25:27.883Z,91590.47
2022-11-24T06:27:54.216Z,91596.19
2022-11-24T06:30:20.687Z,91597.50
2022-11-24T06:32:49.657Z,91591.22
2022-11-24T06:35:17.113Z,91591.22
2022-11-24T06:37:43.617Z,91599.59
2022-11-24T06:40:10.375Z,91607.22
2022-11-24T06:42:37.657Z,91614.25
2022-11-24T06:45:10.217Z,91608.66
2022-11-24T06:47:37.034Z,91607.22
2022-11-24T06:50:04.079Z,91612.81
2022-11-24T06:52:30.646Z,91616.91
2022-11-24T06:54:57.289Z,91621.19
2022-11-24T06:57:23.807Z,91625.41
2022-11-24T06:59:50.391Z,91623.97
2022-11-24T07:02:16.841Z,91605.16
2022-11-24T07:04:43.326Z,91605.88
2022-11-24T07:07:09.819Z,91603.09
2022-11-24T07:09:36.406Z,91614.25
2022-11-24T07:12:03.107Z,91616.41
2022-11-24T07:14:29.567Z,91610.13
2022-11-24T07:16:56.091Z,91616.34
2022-11-24T07:19:25.005Z,91619.81
2022-11-24T07:21:51.814Z,91622.75
2022-11-24T07:24:18.859Z,91636.56
2022-11-24T07:26:45.361Z,91640.81
2022-11-24T07:29:11.836Z,91641.53
2022-11-24T07:31:38.343Z,91643.63
2022-11-24T07:34:05.123Z,91647.72
2022-11-24T07:36:31.707Z,91648.47
2022-11-24T07:38:58.291Z,91650.53
2022-11-24T07:41:24.794Z,91664.47
2022-11-24T07:43:51.873Z,91670.78
2022-11-24T07:46:20.142Z,91678.53
2022-11-24T07:48:46.974Z,91670.78
2022-11-24T07:51:13.545Z,91681.22
2022-11-24T07:53:40.145Z,91686.78
2022-11-24T07:56:07.121Z,91681.81
2022-11-24T07:58:36.197Z,91685.34
2022-11-24T08:01:29.518Z,91686.78
2022-11-24T08:03:56.067Z,91686.78
2022-11-24T08:06:26.206Z,91675.50
2022-11-24T08:08:55.927Z,91673.44
2022-11-24T08:11:23.016Z,91672.00
2022-11-24T08:13:49.555Z,91674.06
2022-11-24T08:16:18.091Z,91677.59
2022-11-24T08:18:49.775Z,91682.44
2022-11-24T08:21:16.236Z,91679.78
2022-11-24T08:23:42.750Z,91671.28
2022-11-24T08:26:18.901Z,91678.09
2022-11-24T08:28:47.227Z,91679.53
2022-11-24T08:31:17.235Z,91678.09
2022-11-24T08:33:44.098Z,91676.75
2022-11-24T08:36:13.334Z,91678.22
2022-11-24T08:38:39.964Z,91666.94
2022-11-24T08:41:10.858Z,91665.47
2022-11-24T08:43:38.036Z,91665.47
2022-11-24T08:46:07.255Z,91669.72
2022-11-24T08:48:34.586Z,91668.25
2022-11-24T08:51:07.955Z,91667.63
2022-11-24T08:53:34.415Z,91667.63
2022-11-24T08:56:01.347Z,91669.09
2022-11-24T08:58:30.805Z,91652.34
2022-11-24T09:01:08.068Z,91643.88
2022-11-24T09:03:34.979Z,91639.03
2022-11-24T09:06:02.421Z,91641.69
2022-11-24T09:08:32.345Z,91631.97
2022-11-24T09:11:17.251Z,91634.16
2022-11-24T09:13:44.716Z,91647.50
2022-11-24T09:16:15.236Z,91641.81
2022-11-24T09:18:41.931Z,91637.78
2022-11-24T09:21:11.132Z,91640.59
2022-11-24T09:23:38.179Z,91642.66
2022-11-24T09:26:13.094Z,91646.03
2022-11-24T09:28:40.707Z,91653.09
2022-11-24T09:31:10.473Z,91651.63
2022-11-24T09:33:37.984Z,91647.41
2022-11-24T09:36:04.994Z,91658.69
2022-11-24T09:38:31.653Z,91655.88
2022-11-24T09:41:24.170Z,91665.69
2022-11-24T09:43:56.796Z,91676.84
2022-11-24T09:46:30.371Z,91673.94
2022-11-24T09:48:57.404Z,91666.44
2022-11-24T09:51:29.260Z,91680.38
2022-11-24T09:54:03.370Z,91686.56
2022-11-24T09:56:34.958Z,91695.03
2022-11-24T09:59:15.808Z,91688.03
2022-11-24T10:01:44.029Z,91692.25
2022-11-24T10:04:36.183Z,91694.34
2022-11-24T10:07:11.940Z,91693.72
2022-11-24T10:10:06.002Z,91698.44
2022-11-24T10:12:45.852Z,91687.91
2022-11-24T10:15:24.481Z,91681.00
2022-11-24T10:18:16.782Z,91686.66
2022-11-24T10:20:46.445Z,91679.03
2022-11-24T10:23:26.507Z,91672.72
2022-11-24T10:25:59.057Z,91663.75
2022-11-24T10:28:33.954Z,91658.88
2022-11-24T10:31:36.782Z,91657.56
2022-11-24T10:34:13.195Z,91660.97
2022-11-24T10:36:53.806Z,91667.13
2022-11-24T10:39:39.226Z,91665.81
2022-11-24T10:42:15.634Z,91671.41
2022-11-24T10:44:43.120Z,91678.53
2022-11-24T10:47:19.781Z,91665.94
2022-11-24T10:49:59.588Z,91661.81
2022-11-24T10:52:29.073Z,91681.34
2022-11-24T10:55:00.722Z,91672.97
2022-11-24T10:57:35.159Z,91672.97
2022-11-24T11:00:22.282Z,91672.97
2022-11-24T11:02:50.371Z,91680.00
2022-11-24T11:05:52.215Z,91681.34
2022-11-24T11:08:24.411Z,91681.34
2022-11-24T11:11:13.770Z,91672.97
2022-11-24T11:14:06.179Z,91675.75
2022-11-24T11:16:41.372Z,91680.00
2022-11-24T11:19:56.861Z,91683.50
2022-11-24T11:22:36.017Z,91680.72
2022-11-24T11:25:11.389Z,91685.59
2022-11-24T11:27:39.662Z,91691.19
2022-11-24T11:36:16.466Z,91716.38
2022-11-24T11:38:45.020Z,91721.25
2022-11-24T11:41:20.340Z,91723.31
2022-11-24T11:43:50.301Z,91727.53
2022-11-24T11:46:17.143Z,91749.88
2022-11-24T11:48:46.618Z,91740.19
2022-11-24T11:51:34.821Z,91751.34
2022-11-24T11:54:25.516Z,91746.50
2022-11-24T11:57:21.751Z,91763.25
2022-11-24T12:00:18.987Z,91763.81
2022-11-24T12:03:10.302Z,91754.13
2022-11-24T12:05:55.360Z,91760.44
2022-11-24T12:08:29.436Z,91766.72
2022-11-24T12:11:16.603Z,91763.94
2022-11-24T12:14:04.383Z,91751.22
2022-11-24T12:16:42.997Z,91754.00
2022-11-24T12:19:21.592Z,91758.25
2022-11-24T12:22:06.020Z,91748.44
2022-11-24T12:24:54.731Z,91749.88
2022-11-24T12:27:28.564Z,91742.97
2022-11-24T12:30:12.503Z,91747.19
2022-11-24T12:32:48.163Z,91743.09
2022-11-24T12:35:39.648Z,91734.72
2022-11-24T12:38:12.252Z,91726.34
2022-11-24T12:40:51.952Z,91722.94
2022-11-24T12:43:30.373Z,91722.94
2022-11-24T12:46:17.309Z,91729.25
2022-11-24T12:48:49.956Z,91733.38
2022-11-24T12:51:25.707Z,91728.53
2022-11-24T12:53:54.031Z,91727.78
2022-11-24T12:56:31.418Z,91717.84
2022-11-24T12:59:12.788Z,91722.22
2022-11-24T13:01:51.497Z,91727.78
2022-11-24T13:04:45.984Z,91723.69
2022-11-24T13:07:20.623Z,91729.25
2022-11-24T13:13:15.302Z,91741.75
2022-11-24T13:16:35.093Z,91750.13
2022-11-24T13:19:01.591Z,91756.56
2022-11-24T13:21:30.603Z,91747.44
2022-11-24T13:24:04.363Z,91746.13
2022-11-24T13:26:54.543Z,91744.66
2022-11-24T13:29:39.863Z,91747.44
2022-11-24T13:32:06.255Z,91754.25
2022-11-24T13:34:38.675Z,91762.50
2022-11-24T13:37:31.352Z,91758.38
2022-11-24T13:40:31.067Z,91758.38
2022-11-24T13:42:57.798Z,91761.16
2022-11-24T13:45:39.872Z,91762.00
2022-11-24T13:48:22.801Z,91765.66
2022-11-24T13:50:58.324Z,91772.69
2022-11-24T13:53:57.160Z,91755.81
2022-11-24T13:56:26.374Z,91753.28
2022-11-24T13:58:57.436Z,91751.09
2022-11-24T14:01:28.325Z,91746.72
2022-11-24T14:04:31.534Z,91757.16
2022-11-24T14:07:07.332Z,91755.94
2022-11-24T14:09:44.819Z,91746.84
2022-11-24T14:12:17.122Z,91744.78
2022-11-24T14:14:46.152Z,91752.53
2022-11-24T14:17:15.559Z,91753.03
2022-11-24T14:20:00.226Z,91745.38
2022-11-24T14:22:36.975Z,91751.59
2022-11-24T14:25:03.911Z,91753.03
2022-11-24T14:27:34.076Z,91761.53
2022-11-24T14:30:17.091Z,91755.22
2022-11-24T14:32:57.442Z,91765.06
2022-11-24T14:35:26.787Z,91765.06
2022-11-24T14:37:53.606Z,91767.09
2022-11-24T14:40:45.005Z,91776.81
2022-11-24T14:43:27.792Z,91771.25
2022-11-24T14:46:12.214Z,91768.34
2022-11-24T14:48:46.887Z,91773.91
2022-11-24T14:51:20.718Z,91782.41
2022-11-24T14:53:52.696Z,91772.81
2022-11-24T14:56:19.274Z,91778.28
2022-11-24T14:58:45.740Z,91781.19
2022-11-24T15:01:27.539Z,91792.34
2022-11-24T15:04:15.203Z,91786.66
2022-11-24T15:07:05.323Z,91788.00
2022-11-24T15:09:43.297Z,91788.00
2022-11-24T15:12:36.165Z,91795.00
2022-11-24T15:15:06.732Z,91795.00
2022-11-24T15:17:33.559Z,91800.59
2022-11-24T15:20:07.521Z,91813.22
2022-11-24T15:22:42.081Z,91813.94
2022-11-24T15:25:32.399Z,91821.69
2022-11-24T15:28:02.242Z,91825.84
2022-11-24T15:30:29.484Z,91822.44
2022-11-24T15:32:57.816Z,91835.03
2022-11-24T15:35:26.689Z,91829.94
2022-11-24T15:37:53.272Z,91827.78
2022-11-24T15:40:20.044Z,91839.06
2022-11-24T15:42:51.603Z,91834.09
2022-11-24T15:45:19.523Z,91835.03
2022-11-24T15:47:46.165Z,91834.34
2022-11-24T15:50:13.271Z,91829.47
2022-11-24T15:52:40.745Z,91831.69
2022-11-24T15:55:07.347Z,91831.69
2022-11-24T15:57:34.198Z,91839.44
2022-11-24T16:00:00.774Z,91844.28
2022-11-24T16:02:27.317Z,91839.44
2022-11-24T16:04:54.282Z,91847.19
2022-11-24T16:07:20.849Z,91850.72
2022-11-24T16:09:47.395Z,91857.63
2022-11-24T16:12:13.892Z,91860.91
2022-11-24T16:14:40.442Z,91861.75
2022-11-24T16:17:06.940Z,91856.88
2022-11-24T16:19:37.346Z,91861.03
2022-11-24T16:22:07.899Z,91858.38
2022-11-24T16:24:34.556Z,91865.41
2022-11-24T16:27:01.080Z,91854.22
2022-11-24T16:29:27.519Z,91860.53
2022-11-24T16:31:54.516Z,91863.34
2022-11-24T16:34:21.051Z,91859.94
2022-11-24T16:36:47.516Z,91862.00
2022-11-24T16:39:13.977Z,91866.88
2022-11-24T16:41:40.908Z,91871.22
2022-11-24T16:44:07.371Z,91868.31
2022-11-24T16:46:33.973Z,91877.41
2022-11-24T16:49:01.203Z,91876.81
2022-11-24T16:51:32.979Z,91873.91
2022-11-24T16:54:02.380Z,91878.03
2022-11-24T16:56:29.620Z,91878.03
2022-11-24T16:58:56.338Z,91880.81
2022-11-24T17:01:23.157Z,91874.03
2022-11-24T17:03:49.643Z,91876.81
2022-11-24T17:06:16.808Z,91876.81
2022-11-24T17:08:45.003Z,91868.31
2022-11-24T17:11:14.232Z,91877.53
2022-11-24T17:13:41.698Z,91880.94
2022-11-24T17:16:17.142Z,91870.50
2022-11-24T17:18:44.436Z,91879.72
2022-11-24T17:21:21.943Z,91892.13
2022-11-24T17:23:53.298Z,91884.56
2022-11-24T17:26:19.731Z,91887.97
2022-11-24T17:28:46.225Z,91887.97
2022-11-24T17:31:23.289Z,91892.22
2022-11-24T17:33:51.380Z,91893.69
2022-11-24T17:36:17.829Z,91892.34
2022-11-24T17:38:44.642Z,91903.28
2022-11-24T17:41:11.444Z,91909.81
2022-11-24T17:43:38.187Z,91915.28
2022-11-24T17:46:05.227Z,91918.81
2022-11-24T17:48:32.500Z,91913.97
2022-11-24T17:51:03.864Z,91918.81
2022-11-24T17:53:30.969Z,91924.41
2022-11-24T17:55:59.152Z,91928.50
2022-11-24T17:58:30.035Z,91942.59
2022-11-24T18:00:57.443Z,91945.38
2022-11-24T18:03:25.555Z,91951.22
2022-11-24T18:05:52.000Z,91953.75
2022-11-24T18:08:18.462Z,91958.63
2022-11-24T18:10:44.970Z,91959.34
2022-11-24T18:13:22.407Z,91960.81
2022-11-24T18:16:02.275Z,91970.50
2022-11-24T18:18:28.880Z,91969.19
2022-11-24T18:21:00.426Z,91970.50
2022-11-24T18:23:27.768Z,91973.44
2022-11-24T18:25:59.772Z,91983.84
2022-11-24T18:28:27.348Z,91979.00
2022-11-24T18:30:59.977Z,91979.00
2022-11-24T18:33:26.424Z,91974.91
2022-11-24T18:36:00.772Z,91994.44
2022-11-24T18:38:28.118Z,91989.00
2022-11-24T18:40:59.484Z,91987.50
2022-11-24T18:43:28.280Z,91984.59
2022-11-24T18:45:55.523Z,91981.94
2022-11-24T18:48:23.878Z,91966.66
2022-11-24T18:50:54.721Z,91974.91
2022-11-24T18:53:23.034Z,91979.00
2022-11-24T18:56:06.566Z,91965.19
2022-11-24T18:58:34.981Z,91985.94
2022-11-24T19:01:12.720Z,91976.09
2022-11-24T19:03:48.894Z,91980.50
2022-11-24T19:06:23.966Z,91986.06
2022-11-24T19:08:54.267Z,91980.50
2022-11-24T19:11:28.097Z,91977.81
2022-11-24T19:13:55.709Z,91981.94
2022-11-24T19:16:22.932Z,91989.00
2022-11-24T19:18:53.731Z,91986.19
2022-11-24T19:21:21.383Z,91984.13
2022-11-24T19:23:47.914Z,91989.00
2022-11-24T19:26:14.490Z,91975.03
2022-11-24T19:28:40.933Z,91982.19
2022-11-24T19:31:10.719Z,91991.19
2022-11-24T19:33:37.201Z,91983.41
2022-11-24T19:36:06.546Z,91984.13
2022-11-24T19:38:34.863Z,91991.88
2022-11-24T19:41:02.203Z,91991.88
2022-11-24T19:43:29.116Z,92000.88
2022-11-24T19:46:02.912Z,91991.19
2022-11-24T19:48:33.684Z,92003.06
2022-11-24T19:51:08.043Z,92003.06
2022-11-24T19:53:35.613Z,92007.19
2022-11-24T19:56:06.026Z,92010.84
2022-11-24T19:58:33.312Z,92009.38
2022-11-24T20:01:09.893Z,92008.63
2022-11-24T20:03:37.924Z,92001.75
2022-11-24T20:06:05.351Z,92006.59
2022-11-24T20:08:32.398Z,92012.28
2022-11-24T20:11:03.783Z,92010.84
2022-11-24T20:13:30.747Z,92002.56
2022-11-24T20:16:03.137Z,92007.19
2022-11-24T20:18:31.100Z,92008.63
2022-11-24T20:21:28.765Z,92014.97
2022-11-24T20:23:57.681Z,92011.31
2022-11-24T20:26:26.144Z,92016.91
2022-11-24T20:28:54.602Z,92011.31
2022-11-24T20:31:24.426Z,92008.63
2022-11-24T20:33:51.262Z,92011.44
2022-11-24T20:36:20.244Z,92008.63
2022-11-24T20:38:47.949Z,92019.81
2022-11-24T20:41:16.708Z,92011.56
2022-11-24T20:43:44.524Z,92017.88
2022-11-24T20:46:14.116Z,92024.06
2022-11-24T20:48:40.711Z,92029.66
2022-11-24T20:51:12.641Z,92029.53
2022-11-24T20:53:40.147Z,92029.66
2022-11-24T20:56:10.038Z,92032.44
2022-11-24T20:58:37.348Z,92029.06
2022-11-24T21:01:22.790Z,92021.28
2022-11-24T21:03:58.012Z,92035.84
2022-11-24T21:06:25.314Z,92027.59
2022-11-24T21:08:52.357Z,92028.31
2022-11-24T21:11:20.267Z,92033.19
2022-11-24T21:13:48.739Z,92030.97
2022-11-24T21:16:22.699Z,92028.19
2022-11-24T21:18:51.741Z,92033.91
2022-11-24T21:21:20.423Z,92026.88
2022-11-24T21:23:48.012Z,92028.31
2022-11-24T21:26:17.064Z,92029.06
2022-11-24T21:28:46.450Z,92026.13
2022-11-24T21:31:15.346Z,92027.59
2022-11-24T21:33:47.160Z,92026.88
2022-11-24T21:36:16.375Z,92026.88
2022-11-24T21:38:42.907Z,92012.78
2022-11-24T21:41:11.095Z,92014.22
2022-11-24T21:43:38.599Z,92012.50
2022-11-24T21:46:08.075Z,92005.22
2022-11-24T21:48:36.150Z,92014.34
2022-11-24T21:51:05.431Z,92015.19
2022-11-24T21:53:36.684Z,92014.00
2022-11-24T21:56:09.829Z,92014.97
2022-11-24T21:58:36.624Z,92011.69
2022-11-24T22:01:05.025Z,92007.69
2022-11-24T22:03:31.880Z,92007.19
2022-11-24T22:06:00.159Z,92005.41
2022-11-24T22:08:28.735Z,92009.78
2022-11-24T22:11:06.398Z,92015.59
2022-11-24T22:13:33.228Z,92013.91
2022-11-24T22:16:20.403Z,92012.84
2022-11-24T22:18:47.527Z,92004.09
2022-11-24T22:21:33.499Z,92001.69
2022-11-24T22:24:00.517Z,91996.34
2022-11-24T22:26:28.890Z,92002.16
2022-11-24T22:28:56.937Z,92005.22
2022-11-24T22:31:25.932Z,92009.00
2022-11-24T22:33:54.047Z,92008.63
2022-11-24T22:36:22.164Z,92014.44
2022-11-24T22:38:53.739Z,92006.53
2022-11-24T22:41:20.636Z,92012.38
2022-11-24T22:43:47.477Z,92010.53
2022-11-24T22:46:16.894Z,92012.84
2022-11-24T22:48:45.103Z,92008.81
2022-11-24T22:51:13.928Z,92003.34
2022-11-24T22:53:40.897Z,92012.47
2022-11-24T22:56:10.254Z,92006.28
2022-11-24T22:58:37.271Z,92017.59
2022-11-24T23:01:09.049Z,92016.34
2022-11-24T23:03:36.716Z,92017.94
2022-11-24T23:06:05.924Z,92020.84
2022-11-24T23:08:34.139Z,92023.78
2022-11-24T23:11:02.813Z,92022.19
2022-11-24T23:13:29.900Z,92020.00
2022-11-24T23:16:02.928Z,92018.44
2022-11-24T23:18:30.583Z,92021.81
2022-11-24T23:20:57.174Z,92020.38
2022-11-24T23:23:23.618Z,92013.34
2022-11-24T23:25:50.096Z,92020.25
2022-11-24T23:28:16.544Z,92022.94
2022-11-24T23:30:42.996Z,92027.19
2022-11-24T23:33:09.500Z,92036.91
2022-11-24T23:35:36.249Z,92029.88
2022-11-24T23:38:09.813Z,92028.41
2022-11-24T23:40:36.278Z,92030.50
2022-11-24T23:43:02.724Z,92024.16
2022-11-24T23:45:29.220Z,92025.47
2022-11-24T23:47:55.784Z,92031.06
2022-11-24T23:50:22.252Z,92025.47
2022-11-24T23:52:48.715Z,92023.31
2022-11-24T23:55:15.351Z,92019.78
2022-11-24T23:57:41.842Z,92023.91
